createdAt,value
2023-03-27T00:03:31.853Z,93872.00
2023-03-27T00:07:32.056Z,93874.00
2023-03-27T00:11:31.688Z,93878.00
2023-03-27T00:15:31.678Z,93884.00
2023-03-27T00:19:32.068Z,93884.00
2023-03-27T00:23:32.072Z,93884.00
2023-03-27T00:27:31.571Z,93886.00
2023-03-27T00:31:31.619Z,93882.00
2023-03-27T00:35:31.600Z,93886.00
2023-03-27T00:39:31.461Z,93888.00
2023-03-27T00:43:31.581Z,93892.00
2023-03-27T00:47:31.621Z,93896.00
2023-03-27T00:51:31.332Z,93892.00
2023-03-27T00:55:31.577Z,93900.00
2023-03-27T00:59:31.674Z,93902.00
2023-03-27T01:03:31.692Z,93894.00
2023-03-27T01:07:31.314Z,93894.00
2023-03-27T01:11:31.573Z,93900.00
2023-03-27T01:15:31.563Z,93896.00
2023-03-27T01:19:31.573Z,93909.00
2023-03-27T01:23:58.561Z,93902.00
2023-03-27T01:27:32.469Z,93898.00
2023-03-27T01:31:31.612Z,93890.00
2023-03-27T01:35:31.626Z,93902.00
2023-03-27T01:39:31.350Z,93909.00
2023-03-27T01:43:31.608Z,93904.00
2023-03-27T01:47:31.342Z,93913.00
2023-03-27T01:51:31.583Z,93911.00
2023-03-27T01:55:31.623Z,93911.00
2023-03-27T01:59:31.594Z,93917.00
2023-03-27T02:03:31.475Z,93913.00
2023-03-27T02:07:31.581Z,93913.00
2023-03-27T02:11:31.578Z,93913.00
2023-03-27T02:15:32.117Z,93915.00
2023-03-27T02:19:32.099Z,93913.00
2023-03-27T02:23:31.679Z,93907.00
2023-03-27T02:27:32.098Z,93907.00
2023-03-27T02:31:34.398Z,93906.00
2023-03-27T02:35:32.122Z,93906.00
2023-03-27T02:39:31.692Z,93902.00
2023-03-27T02:43:31.636Z,93902.00
2023-03-27T02:47:32.191Z,93898.00
2023-03-27T02:51:31.614Z,93906.00
2023-03-27T02:55:31.619Z,93909.00
2023-03-27T02:59:31.519Z,93909.00
2023-03-27T03:03:31.521Z,93913.00
2023-03-27T03:07:31.707Z,93915.00
2023-03-27T03:11:31.387Z,93915.00
2023-03-27T03:15:31.627Z,93921.00
2023-03-27T03:19:31.348Z,93919.00
2023-03-27T03:23:31.633Z,93915.00
2023-03-27T03:27:31.643Z,93917.00
2023-03-27T03:31:31.290Z,93915.00
2023-03-27T03:35:31.691Z,93919.00
2023-03-27T03:39:31.175Z,93927.00
2023-03-27T03:43:31.141Z,93937.00
2023-03-27T03:47:31.152Z,93941.00
2023-03-27T03:51:31.028Z,93951.00
2023-03-27T03:55:31.173Z,93953.00
2023-03-27T03:59:30.944Z,93957.00
2023-03-27T04:03:31.023Z,93953.00
2023-03-27T04:07:31.126Z,93964.00
2023-03-27T04:11:30.846Z,93968.00
2023-03-27T04:15:31.149Z,93966.00
2023-03-27T04:19:30.746Z,93964.00
2023-03-27T04:23:31.176Z,93972.00
2023-03-27T04:27:31.166Z,93972.00
2023-03-27T04:31:30.882Z,93964.00
2023-03-27T04:35:30.894Z,93980.00
2023-03-27T04:39:30.871Z,93994.00
2023-03-27T04:43:31.144Z,93998.00
2023-03-27T04:47:31.333Z,94004.00
2023-03-27T04:51:31.178Z,94008.00
2023-03-27T04:55:31.046Z,94023.00
2023-03-27T04:59:31.160Z,94021.00
2023-03-27T05:03:31.146Z,94033.00
2023-03-27T05:07:31.132Z,94043.00
2023-03-27T05:11:31.201Z,94049.00
2023-03-27T05:15:31.653Z,94051.00
2023-03-27T05:19:31.258Z,94056.00
2023-03-27T05:23:31.644Z,94056.00
2023-03-27T05:27:31.658Z,94064.00
2023-03-27T05:31:31.398Z,94078.00
2023-03-27T05:35:31.752Z,94078.00
2023-03-27T05:39:31.681Z,94096.00
2023-03-27T05:43:31.673Z,94096.00
2023-03-27T05:47:31.699Z,94133.00
2023-03-27T05:51:31.637Z,94127.00
2023-03-27T05:55:32.156Z,94145.00
2023-03-27T05:59:32.159Z,94151.00
2023-03-27T06:03:32.313Z,94141.00
2023-03-27T06:07:32.091Z,94166.00
2023-03-27T06:11:32.289Z,94172.00
2023-03-27T06:15:32.315Z,94194.00
2023-03-27T06:19:32.712Z,94192.00
2023-03-27T06:23:32.726Z,94211.00
2023-03-27T06:27:32.498Z,94225.00
2023-03-27T06:31:33.237Z,94233.00
2023-03-27T06:35:33.198Z,94247.00
2023-03-27T06:39:32.645Z,94258.00
2023-03-27T06:43:32.697Z,94251.00
2023-03-27T06:47:36.382Z,94284.00
2023-03-27T06:51:33.890Z,94307.00
2023-03-27T06:55:32.689Z,94298.00
2023-03-27T06:59:32.711Z,94305.00
2023-03-27T07:03:32.718Z,94317.00
2023-03-27T07:07:32.511Z,94339.00
2023-03-27T07:11:32.694Z,94339.00
2023-03-27T07:15:32.687Z,94351.00
2023-03-27T07:19:33.210Z,94366.00
2023-03-27T07:23:33.344Z,94405.00
2023-03-27T07:27:33.302Z,94403.00
2023-03-27T07:31:51.560Z,94429.00
2023-03-27T07:35:34.775Z,94433.00
2023-03-27T07:39:33.685Z,94448.00
2023-03-27T07:43:33.713Z,94464.00
2023-03-27T07:47:33.445Z,94488.00
2023-03-27T07:51:33.771Z,94492.00
2023-03-27T07:55:33.710Z,94494.00
2023-03-27T07:59:33.724Z,94501.00
2023-03-27T08:03:33.947Z,94517.00
2023-03-27T08:07:33.932Z,94543.00
2023-03-27T08:11:34.291Z,94543.00
2023-03-27T08:15:33.979Z,94562.00
2023-03-27T08:19:33.989Z,94556.00
2023-03-27T08:23:34.089Z,94580.00
2023-03-27T08:27:34.213Z,94588.00
2023-03-27T08:31:34.381Z,94586.00
2023-03-27T08:35:34.615Z,94603.00
2023-03-27T08:39:34.783Z,94603.00
2023-03-27T08:43:34.891Z,94615.00
2023-03-27T08:47:35.043Z,94619.00
2023-03-27T08:51:35.104Z,94619.00
2023-03-27T08:55:35.109Z,94643.00
2023-03-27T08:59:35.353Z,94662.00
2023-03-27T09:03:35.507Z,94650.00
2023-03-27T09:07:35.501Z,94658.00
2023-03-27T09:11:35.589Z,94662.00
2023-03-27T09:15:35.813Z,94672.00
2023-03-27T09:19:35.892Z,94684.00
2023-03-27T09:23:36.032Z,94688.00
2023-03-27T09:27:36.156Z,94697.00
2023-03-27T09:31:36.373Z,94701.00
2023-03-27T09:35:36.360Z,94699.00
2023-03-27T09:39:36.410Z,94707.00
2023-03-27T09:43:36.488Z,94703.00
2023-03-27T09:47:36.610Z,94693.00
2023-03-27T09:51:36.611Z,94697.00
2023-03-27T09:55:36.793Z,94717.00
2023-03-27T09:59:36.874Z,94699.00
2023-03-27T10:03:37.149Z,94715.00
2023-03-27T10:07:37.255Z,94721.00
2023-03-27T10:11:37.245Z,94733.00
2023-03-27T10:15:37.051Z,94731.00
2023-03-27T10:19:37.289Z,94729.00
2023-03-27T10:23:37.910Z,94743.00
2023-03-27T10:27:37.768Z,94752.00
2023-03-27T10:31:38.008Z,94747.00
2023-03-27T10:35:37.670Z,94760.00
2023-03-27T10:39:37.784Z,94750.00
2023-03-27T10:43:38.251Z,94754.00
2023-03-27T10:47:38.286Z,94752.00
2023-03-27T10:51:46.021Z,94750.00
2023-03-27T10:55:38.988Z,94758.00
2023-03-27T10:59:41.843Z,94760.00
2023-03-27T11:03:38.389Z,94766.00
2023-03-27T11:07:38.292Z,94782.00
2023-03-27T11:11:37.887Z,94786.00
2023-03-27T11:15:38.292Z,94792.00
2023-03-27T11:19:38.296Z,94786.00
2023-03-27T11:23:37.781Z,94803.00
2023-03-27T11:27:37.814Z,94797.00
2023-03-27T11:31:37.734Z,94809.00
2023-03-27T11:35:38.318Z,94809.00
2023-03-27T11:39:38.279Z,94825.00
2023-03-27T11:43:38.305Z,94841.00
2023-03-27T11:47:38.038Z,94833.00
2023-03-27T11:51:38.063Z,94827.00
2023-03-27T11:55:38.321Z,94848.00
2023-03-27T11:59:38.290Z,94848.00
2023-03-27T12:03:38.189Z,94835.00
2023-03-27T12:07:40.568Z,94852.00
2023-03-27T12:11:39.294Z,94860.00
2023-03-27T12:15:38.313Z,94866.00
2023-03-27T12:19:39.211Z,94870.00
2023-03-27T12:23:38.426Z,94880.00
2023-03-27T12:27:38.554Z,94858.00
2023-03-27T12:31:38.885Z,94889.00
2023-03-27T12:35:39.320Z,94864.00
2023-03-27T12:39:39.727Z,94874.00
2023-03-27T12:43:39.064Z,94880.00
2023-03-27T12:47:39.168Z,94903.00
2023-03-27T12:51:39.208Z,94903.00
2023-03-27T12:55:39.326Z,94913.00
2023-03-27T12:59:39.372Z,94923.00
2023-03-27T13:03:46.910Z,94933.00
2023-03-27T13:07:39.486Z,94931.00
2023-03-27T13:11:39.856Z,94933.00
2023-03-27T13:15:39.421Z,94931.00
2023-03-27T13:19:39.854Z,94948.00
2023-03-27T13:23:39.309Z,94931.00
2023-03-27T13:27:39.369Z,94960.00
2023-03-27T13:31:39.397Z,94946.00
2023-03-27T13:35:39.199Z,94964.00
2023-03-27T13:39:39.359Z,94954.00
2023-03-27T13:43:39.127Z,94980.00
2023-03-27T13:47:39.858Z,94978.00
2023-03-27T13:51:39.388Z,94980.00
2023-03-27T13:55:39.294Z,94982.00
2023-03-27T13:59:39.378Z,94989.00
2023-03-27T14:03:39.441Z,94991.00
2023-03-27T14:07:39.852Z,94997.00
2023-03-27T14:11:39.561Z,94997.00
2023-03-27T14:15:39.926Z,95009.00
2023-03-27T14:19:39.720Z,95021.00
2023-03-27T14:23:39.852Z,95036.00
2023-03-27T14:27:40.352Z,95048.00
2023-03-27T14:31:40.401Z,95050.00
2023-03-27T14:35:40.084Z,95050.00
2023-03-27T14:39:40.088Z,95052.00
2023-03-27T14:43:40.392Z,95066.00
2023-03-27T14:47:40.256Z,95070.00
2023-03-27T14:51:40.366Z,95072.00
2023-03-27T14:55:40.379Z,95084.00
2023-03-27T14:59:40.421Z,95090.00
2023-03-27T15:03:40.882Z,95097.00
2023-03-27T15:07:40.886Z,95111.00
2023-03-27T15:11:40.575Z,95111.00
2023-03-27T15:15:40.946Z,95131.00
2023-03-27T15:19:40.650Z,95144.00
2023-03-27T15:23:40.866Z,95154.00
2023-03-27T15:27:40.914Z,95170.00
2023-03-27T15:31:40.901Z,95186.00
2023-03-27T15:35:40.845Z,95176.00
2023-03-27T15:39:40.908Z,95170.00
2023-03-27T15:43:42.388Z,95186.00
2023-03-27T15:47:41.491Z,95191.00
2023-03-27T15:51:40.982Z,95188.00
2023-03-27T15:55:41.069Z,95191.00
2023-03-27T15:59:52.047Z,95193.00
2023-03-27T16:03:42.189Z,95215.00
2023-03-27T16:07:41.405Z,95209.00
2023-03-27T16:11:41.227Z,95209.00
2023-03-27T16:15:41.250Z,95217.00
2023-03-27T16:19:41.302Z,95227.00
2023-03-27T16:23:41.416Z,95250.00
2023-03-27T16:27:41.618Z,95244.00
2023-03-27T16:31:41.459Z,95260.00
2023-03-27T16:35:41.455Z,95262.00
2023-03-27T16:39:41.911Z,95268.00
2023-03-27T16:43:41.510Z,95280.00
2023-03-27T16:47:42.015Z,95303.00
2023-03-27T16:51:41.638Z,95292.00
2023-03-27T16:55:41.717Z,95303.00
2023-03-27T16:59:41.913Z,95309.00
2023-03-27T17:03:41.921Z,95321.00
2023-03-27T17:07:42.417Z,95317.00
2023-03-27T17:11:42.016Z,95327.00
2023-03-27T17:15:42.398Z,95329.00
2023-03-27T17:19:42.392Z,95337.00
2023-03-27T17:23:42.425Z,95348.00
2023-03-27T17:27:42.431Z,95344.00
2023-03-27T17:31:42.530Z,95340.00
2023-03-27T17:35:42.999Z,95350.00
2023-03-27T17:39:42.918Z,95354.00
2023-03-27T17:43:42.960Z,95350.00
2023-03-27T17:47:42.991Z,95352.00
2023-03-27T17:51:42.743Z,95358.00
2023-03-27T17:55:42.930Z,95358.00
2023-03-27T17:59:42.935Z,95356.00
2023-03-27T18:03:42.911Z,95364.00
2023-03-27T18:07:42.945Z,95368.00
2023-03-27T18:11:42.884Z,95368.00
2023-03-27T18:15:43.506Z,95378.00
2023-03-27T18:19:43.446Z,95376.00
2023-03-27T18:23:46.389Z,95376.00
2023-03-27T18:27:43.937Z,95382.00
2023-03-27T18:31:42.980Z,95384.00
2023-03-27T18:35:42.971Z,95387.00
2023-03-27T18:39:42.872Z,95403.00
2023-03-27T18:43:42.981Z,95411.00
2023-03-27T18:47:42.795Z,95413.00
2023-03-27T18:51:42.945Z,95417.00
2023-03-27T18:55:42.986Z,95411.00
2023-03-27T18:59:42.978Z,95415.00
2023-03-27T19:03:42.951Z,95417.00
2023-03-27T19:07:44.322Z,95421.00
2023-03-27T19:11:42.959Z,95431.00
2023-03-27T19:15:42.954Z,95431.00
2023-03-27T19:19:43.893Z,95433.00
2023-03-27T19:23:42.470Z,95439.00
2023-03-27T19:27:42.457Z,95444.00
2023-03-27T19:31:42.476Z,95440.00
2023-03-27T19:35:42.482Z,95456.00
2023-03-27T19:39:42.465Z,95444.00
2023-03-27T19:43:42.466Z,95454.00
2023-03-27T19:47:42.326Z,95466.00
2023-03-27T19:51:42.509Z,95448.00
2023-03-27T19:55:42.483Z,95448.00
2023-03-27T19:59:42.468Z,95452.00
2023-03-27T20:03:42.249Z,95458.00
2023-03-27T20:07:42.099Z,95456.00
2023-03-27T20:11:42.473Z,95448.00
2023-03-27T20:15:42.017Z,95442.00
2023-03-27T20:19:41.990Z,95458.00
2023-03-27T20:23:41.995Z,95456.00
2023-03-27T20:27:41.998Z,95462.00
2023-03-27T20:31:42.040Z,95474.00
2023-03-27T20:35:41.830Z,95484.00
2023-03-27T20:39:42.008Z,95499.00
2023-03-27T20:43:41.734Z,95497.00
2023-03-27T20:47:42.043Z,95493.00
2023-03-27T20:51:42.003Z,95499.00
2023-03-27T20:55:53.132Z,95503.00
2023-03-27T20:59:42.650Z,95501.00
2023-03-27T21:03:41.763Z,95501.00
2023-03-27T21:07:42.016Z,95503.00
2023-03-27T21:11:42.057Z,95501.00
2023-03-27T21:15:42.006Z,95503.00
2023-03-27T21:19:41.909Z,95509.00
2023-03-27T21:23:42.547Z,95507.00
2023-03-27T21:27:41.992Z,95507.00
2023-03-27T21:31:42.194Z,95503.00
2023-03-27T21:35:42.504Z,95501.00
2023-03-27T21:39:42.079Z,95497.00
2023-03-27T21:43:42.531Z,95497.00
2023-03-27T21:47:47.647Z,95509.00
2023-03-27T21:51:43.522Z,95511.00
2023-03-27T21:55:42.580Z,95513.00
2023-03-27T21:59:42.350Z,95523.00
2023-03-27T22:03:42.366Z,95523.00
2023-03-27T22:07:42.506Z,95537.00
2023-03-27T22:11:42.569Z,95544.00
2023-03-27T22:15:42.547Z,95548.00
2023-03-27T22:19:42.473Z,95554.00
2023-03-27T22:23:42.594Z,95552.00
2023-03-27T22:27:42.535Z,95548.00
2023-03-27T22:31:43.707Z,95554.00
2023-03-27T22:35:43.068Z,95562.00
2023-03-27T22:39:42.649Z,95570.00
2023-03-27T22:43:43.033Z,95582.00
2023-03-27T22:47:43.071Z,95574.00
2023-03-27T22:51:43.037Z,95585.00
2023-03-27T22:55:42.926Z,95597.00
2023-03-27T22:59:43.023Z,95595.00
2023-03-27T23:03:43.175Z,95599.00
2023-03-27T23:07:43.540Z,95589.00
2023-03-27T23:11:43.559Z,95607.00
2023-03-27T23:15:43.221Z,95607.00
2023-03-27T23:19:43.543Z,95597.00
2023-03-27T23:23:43.266Z,95603.00
2023-03-27T23:27:43.563Z,95605.00
2023-03-27T23:31:43.598Z,95601.00
2023-03-27T23:35:43.440Z,95603.00
2023-03-27T23:39:43.536Z,95593.00
2023-03-27T23:43:43.536Z,95599.00
2023-03-27T23:47:44.083Z,95603.00
2023-03-27T23:51:43.635Z,95615.00
2023-03-27T23:55:44.052Z,95621.00
2023-03-27T23:59:43.756Z,95625.00
